Clarksville, AR

11:19 AM CDT on August 30, 2014 (GMT -0500)
Russellville Regional | Change Station
CLOSE
Current Station
Airport
Location: Russellville,
Elevation: 404 ft
Nearby Weather Stations

Elev 404 ft 35.26 °N, 93.09 °W | Updated 26 minutes ago

Mostly Cloudy
Mostly Cloudy
81 °F
Feels Like 86 °F
N
0
Wind Variable Wind from North

Today
High -- | Low -- °F
--% Chance of Precip.
Yesterday
High -- | Low -- °F
Precip. -- in
6:44 AM 7:43 PM
Waxing Crescent, 23% visible
Pressure 29.99 in
Visibility 10.0 miles
Clouds Mostly Cloudy 3800 ft
Heat Index 86 °F
Dew Point 73 °F
Humidity 77%
Rainfall 0.00 in
Snow Depth Not available.
UV 4 out of 12
Pollen 8.70 out of 12
Air Quality Not available.
Flu Activity Not available.
METAR KRUE 301553Z AUTO 00000KT 10SM BKN038 27/23 A3001 RMK AO2 SLP154 T02720228

More Conditions Fewer Conditions

Pressure 29.99 in
Visibility 10.0 miles
Clouds Mostly Cloudy 3800 ft
Heat Index 86 °F
Dew Point 73 °F
Humidity 77%
Rainfall 0.00 in
Snow Depth Not available.
UV 4 out of 12
Pollen 8.70 out of 12
Air Quality Not available.
Flu Activity Not available.
METAR KRUE 301553Z AUTO 00000KT 10SM BKN038 27/23 A3001 RMK AO2 SLP154 T02720228

More Conditions Fewer Conditions

10-Day Weather Forecast

Almanac

Astronomy

Aug. 30, 2014 Rise Set
Actual Time 6:44 AM CDT 7:43 PM CDT
Civil Twilight 6:18 AM CDT 8:09 PM CDT
Nautical Twilight 5:47 AM CDT 8:40 PM CDT
Astronomical Twilight 5:15 AM CDT 9:12 PM CDT
Moon 11:21 AM CDT 10:30 PM CDT
Length of Visible Light 13h 51m
Length of Day
12h 59m
Tomorrow will be 2m 7s shorter.
Waxing Crescent, 23% of the Moon is Illuminated
Today
Waxing Crescent
Sep 2
First Quarter
Sep 8
Full
Sep 15
Last Quarter
Sep 24
New

Today's Extremes

State Highs State Lows

Community

WunderPhotos

Upload Photos

1,748,556 photos uploaded!

WunderBlogs® & News

Nearby

Snow Depth

Station Depth Elevation
No new snow has been reported.

Earthquake Activity

City Distance Mag. Time & Date
No recent earthquake activity has been reported nearby.
Minimum magnitude displayed is 2.5.

Coastal Water Temperatures

Place Temperature
No Stations Reporting

Nearby Weather Stations